sensor_id;sensor_type;location;lat;lon;timestamp;temperature;humidity
53978;DHT22;39886;47.984;-1.586;2023-09-19T00:00:01;22.90;66.20
53978;DHT22;39886;47.984;-1.586;2023-09-19T00:02:26;22.90;66.20
53978;DHT22;39886;47.984;-1.586;2023-09-19T00:04:52;22.90;66.20
53978;DHT22;39886;47.984;-1.586;2023-09-19T00:07:19;22.90;66.20
53978;DHT22;39886;47.984;-1.586;2023-09-19T00:09:44;22.90;66.30
53978;DHT22;39886;47.984;-1.586;2023-09-19T00:12:10;22.90;66.30
53978;DHT22;39886;47.984;-1.586;2023-09-19T00:14:35;22.90;66.30
53978;DHT22;39886;47.984;-1.586;2023-09-19T00:17:01;22.90;66.30
53978;DHT22;39886;47.984;-1.586;2023-09-19T00:19:32;22.90;66.40
53978;DHT22;39886;47.984;-1.586;2023-09-19T00:21:58;22.90;66.40
53978;DHT22;39886;47.984;-1.586;2023-09-19T00:24:24;22.80;66.40
53978;DHT22;39886;47.984;-1.586;2023-09-19T00:26:49;22.80;66.40
53978;DHT22;39886;47.984;-1.586;2023-09-19T00:29:15;22.80;66.40
53978;DHT22;39886;47.984;-1.586;2023-09-19T00:31:44;22.80;66.50
53978;DHT22;39886;47.984;-1.586;2023-09-19T00:34:10;22.90;66.50
53978;DHT22;39886;47.984;-1.586;2023-09-19T00:36:36;22.80;66.50
53978;DHT22;39886;47.984;-1.586;2023-09-19T00:39:04;22.80;66.50
53978;DHT22;39886;47.984;-1.586;2023-09-19T00:41:34;22.90;66.50
53978;DHT22;39886;47.984;-1.586;2023-09-19T00:44:04;22.80;66.50
53978;DHT22;39886;47.984;-1.586;2023-09-19T00:46:30;22.80;66.50
53978;DHT22;39886;47.984;-1.586;2023-09-19T00:48:56;22.80;66.50
53978;DHT22;39886;47.984;-1.586;2023-09-19T00:51:22;22.80;66.50
53978;DHT22;39886;47.984;-1.586;2023-09-19T00:53:48;22.80;66.50
53978;DHT22;39886;47.984;-1.586;2023-09-19T00:56:14;22.80;66.50
53978;DHT22;39886;47.984;-1.586;2023-09-19T00:58:44;22.80;66.60
53978;DHT22;39886;47.984;-1.586;2023-09-19T01:01:09;22.80;66.60
53978;DHT22;39886;47.984;-1.586;2023-09-19T01:03:37;22.80;66.60
53978;DHT22;39886;47.984;-1.586;2023-09-19T01:06:02;22.80;66.60
53978;DHT22;39886;47.984;-1.586;2023-09-19T01:08:28;22.80;66.70
53978;DHT22;39886;47.984;-1.586;2023-09-19T01:10:55;22.80;66.70
53978;DHT22;39886;47.984;-1.586;2023-09-19T01:13:32;22.70;66.60
53978;DHT22;39886;47.984;-1.586;2023-09-19T01:16:05;22.70;66.60
53978;DHT22;39886;47.984;-1.586;2023-09-19T01:21:08;22.70;66.70
53978;DHT22;39886;47.984;-1.586;2023-09-19T01:28:43;22.70;66.80
53978;DHT22;39886;47.984;-1.586;2023-09-19T01:31:12;22.70;66.80
53978;DHT22;39886;47.984;-1.586;2023-09-19T01:33:58;22.70;66.80
53978;DHT22;39886;47.984;-1.586;2023-09-19T01:36:28;22.70;66.80
53978;DHT22;39886;47.984;-1.586;2023-09-19T01:38:54;22.70;66.80
53978;DHT22;39886;47.984;-1.586;2023-09-19T01:41:26;22.70;66.80
53978;DHT22;39886;47.984;-1.586;2023-09-19T01:43:51;22.70;66.90
53978;DHT22;39886;47.984;-1.586;2023-09-19T01:46:29;22.70;66.90
53978;DHT22;39886;47.984;-1.586;2023-09-19T01:54:16;22.70;66.90
53978;DHT22;39886;47.984;-1.586;2023-09-19T01:59:31;22.70;67.00
53978;DHT22;39886;47.984;-1.586;2023-09-19T02:01:59;22.70;66.90
53978;DHT22;39886;47.984;-1.586;2023-09-19T02:04:25;22.70;67.00
53978;DHT22;39886;47.984;-1.586;2023-09-19T02:06:52;22.70;67.00
53978;DHT22;39886;47.984;-1.586;2023-09-19T02:09:18;22.60;67.00
53978;DHT22;39886;47.984;-1.586;2023-09-19T02:11:44;22.60;67.00
53978;DHT22;39886;47.984;-1.586;2023-09-19T02:14:09;22.60;67.00
53978;DHT22;39886;47.984;-1.586;2023-09-19T02:16:35;22.60;67.00
53978;DHT22;39886;47.984;-1.586;2023-09-19T02:19:00;22.60;67.00
53978;DHT22;39886;47.984;-1.586;2023-09-19T02:21:30;22.60;67.00
53978;DHT22;39886;47.984;-1.586;2023-09-19T02:23:56;22.60;67.00
53978;DHT22;39886;47.984;-1.586;2023-09-19T02:26:21;22.60;67.10
53978;DHT22;39886;47.984;-1.586;2023-09-19T02:28:50;22.60;67.10
53978;DHT22;39886;47.984;-1.586;2023-09-19T02:31:15;22.60;67.10
53978;DHT22;39886;47.984;-1.586;2023-09-19T02:33:42;22.60;67.10
53978;DHT22;39886;47.984;-1.586;2023-09-19T02:36:07;22.60;67.10
53978;DHT22;39886;47.984;-1.586;2023-09-19T02:38:34;22.60;67.10
53978;DHT22;39886;47.984;-1.586;2023-09-19T02:40:59;22.60;67.10
53978;DHT22;39886;47.984;-1.586;2023-09-19T02:43:25;22.60;67.10
53978;DHT22;39886;47.984;-1.586;2023-09-19T02:45:51;22.60;67.10
53978;DHT22;39886;47.984;-1.586;2023-09-19T02:48:18;22.60;67.10
53978;DHT22;39886;47.984;-1.586;2023-09-19T02:50:44;22.60;67.20
53978;DHT22;39886;47.984;-1.586;2023-09-19T02:53:10;22.60;67.20
53978;DHT22;39886;47.984;-1.586;2023-09-19T02:55:38;22.60;67.20
53978;DHT22;39886;47.984;-1.586;2023-09-19T02:58:06;22.60;67.20
53978;DHT22;39886;47.984;-1.586;2023-09-19T03:00:33;22.60;67.20
53978;DHT22;39886;47.984;-1.586;2023-09-19T03:02:59;22.50;67.10
53978;DHT22;39886;47.984;-1.586;2023-09-19T03:05:25;22.50;67.20
53978;DHT22;39886;47.984;-1.586;2023-09-19T03:07:51;22.50;67.20
53978;DHT22;39886;47.984;-1.586;2023-09-19T03:10:17;22.50;67.20
53978;DHT22;39886;47.984;-1.586;2023-09-19T03:12:43;22.50;67.20
53978;DHT22;39886;47.984;-1.586;2023-09-19T03:15:09;22.50;67.20
53978;DHT22;39886;47.984;-1.586;2023-09-19T03:17:34;22.50;67.20
53978;DHT22;39886;47.984;-1.586;2023-09-19T03:20:01;22.50;67.20
53978;DHT22;39886;47.984;-1.586;2023-09-19T03:22:27;22.50;67.20
53978;DHT22;39886;47.984;-1.586;2023-09-19T03:24:52;22.50;67.20
53978;DHT22;39886;47.984;-1.586;2023-09-19T03:27:18;22.50;67.20
53978;DHT22;39886;47.984;-1.586;2023-09-19T03:29:44;22.50;67.20
53978;DHT22;39886;47.984;-1.586;2023-09-19T03:32:09;22.50;67.20
53978;DHT22;39886;47.984;-1.586;2023-09-19T03:34:36;22.50;67.30
53978;DHT22;39886;47.984;-1.586;2023-09-19T03:37:03;22.50;67.30
53978;DHT22;39886;47.984;-1.586;2023-09-19T03:39:29;22.50;67.30
53978;DHT22;39886;47.984;-1.586;2023-09-19T03:41:54;22.50;67.30
53978;DHT22;39886;47.984;-1.586;2023-09-19T03:44:20;22.50;67.30
53978;DHT22;39886;47.984;-1.586;2023-09-19T03:46:46;22.50;67.40
53978;DHT22;39886;47.984;-1.586;2023-09-19T03:49:12;22.50;67.30
53978;DHT22;39886;47.984;-1.586;2023-09-19T03:51:37;22.50;67.40
53978;DHT22;39886;47.984;-1.586;2023-09-19T03:54:03;22.50;67.30
53978;DHT22;39886;47.984;-1.586;2023-09-19T03:56:29;22.50;67.40
53978;DHT22;39886;47.984;-1.586;2023-09-19T03:58:55;22.50;67.40
53978;DHT22;39886;47.984;-1.586;2023-09-19T04:01:20;22.50;67.40
53978;DHT22;39886;47.984;-1.586;2023-09-19T04:03:46;22.50;67.40
53978;DHT22;39886;47.984;-1.586;2023-09-19T04:06:13;22.50;67.40
53978;DHT22;39886;47.984;-1.586;2023-09-19T04:08:39;22.50;67.40
53978;DHT22;39886;47.984;-1.586;2023-09-19T04:11:04;22.50;67.40
53978;DHT22;39886;47.984;-1.586;2023-09-19T04:13:30;22.50;67.40
53978;DHT22;39886;47.984;-1.586;2023-09-19T04:15:55;22.50;67.40
53978;DHT22;39886;47.984;-1.586;2023-09-19T04:18:21;22.40;67.40
53978;DHT22;39886;47.984;-1.586;2023-09-19T04:20:52;22.50;67.40
53978;DHT22;39886;47.984;-1.586;2023-09-19T04:23:17;22.50;67.40
53978;DHT22;39886;47.984;-1.586;2023-09-19T04:25:45;22.50;67.50
53978;DHT22;39886;47.984;-1.586;2023-09-19T04:28:11;22.40;67.40
53978;DHT22;39886;47.984;-1.586;2023-09-19T04:30:37;22.40;68.10
53978;DHT22;39886;47.984;-1.586;2023-09-19T04:33:03;22.40;67.40
53978;DHT22;39886;47.984;-1.586;2023-09-19T04:35:28;22.40;67.40
53978;DHT22;39886;47.984;-1.586;2023-09-19T04:37:56;22.40;67.40
53978;DHT22;39886;47.984;-1.586;2023-09-19T04:40:22;22.40;67.40
53978;DHT22;39886;47.984;-1.586;2023-09-19T04:42:58;22.40;67.40
53978;DHT22;39886;47.984;-1.586;2023-09-19T04:45:24;22.40;67.40
53978;DHT22;39886;47.984;-1.586;2023-09-19T04:47:49;22.50;67.50
53978;DHT22;39886;47.984;-1.586;2023-09-19T04:50:15;22.40;67.40
53978;DHT22;39886;47.984;-1.586;2023-09-19T04:52:42;22.40;67.40
53978;DHT22;39886;47.984;-1.586;2023-09-19T04:55:13;22.50;67.50
53978;DHT22;39886;47.984;-1.586;2023-09-19T04:57:50;22.40;67.40
53978;DHT22;39886;47.984;-1.586;2023-09-19T05:00:18;22.40;67.40
53978;DHT22;39886;47.984;-1.586;2023-09-19T05:02:45;22.40;67.40
53978;DHT22;39886;47.984;-1.586;2023-09-19T05:05:11;22.40;67.40
53978;DHT22;39886;47.984;-1.586;2023-09-19T05:07:38;22.40;67.40
53978;DHT22;39886;47.984;-1.586;2023-09-19T05:10:04;22.40;67.40
53978;DHT22;39886;47.984;-1.586;2023-09-19T05:12:34;22.40;67.40
53978;DHT22;39886;47.984;-1.586;2023-09-19T05:15:00;22.40;67.40
53978;DHT22;39886;47.984;-1.586;2023-09-19T05:17:27;22.40;67.40
53978;DHT22;39886;47.984;-1.586;2023-09-19T05:19:52;22.40;67.50
53978;DHT22;39886;47.984;-1.586;2023-09-19T05:22:18;22.40;67.50
53978;DHT22;39886;47.984;-1.586;2023-09-19T05:24:44;22.40;67.50
53978;DHT22;39886;47.984;-1.586;2023-09-19T05:27:14;22.40;67.50
53978;DHT22;39886;47.984;-1.586;2023-09-19T05:29:44;22.40;67.50
53978;DHT22;39886;47.984;-1.586;2023-09-19T05:32:10;22.40;67.50
53978;DHT22;39886;47.984;-1.586;2023-09-19T05:34:36;22.40;67.50
53978;DHT22;39886;47.984;-1.586;2023-09-19T05:37:02;22.40;67.50
53978;DHT22;39886;47.984;-1.586;2023-09-19T05:39:31;22.30;67.50
53978;DHT22;39886;47.984;-1.586;2023-09-19T05:41:57;22.40;67.50
53978;DHT22;39886;47.984;-1.586;2023-09-19T05:44:22;22.40;67.50
53978;DHT22;39886;47.984;-1.586;2023-09-19T05:46:48;22.40;67.50
53978;DHT22;39886;47.984;-1.586;2023-09-19T05:49:14;22.30;67.40
53978;DHT22;39886;47.984;-1.586;2023-09-19T05:51:41;22.40;67.50
53978;DHT22;39886;47.984;-1.586;2023-09-19T05:54:06;22.40;67.50
53978;DHT22;39886;47.984;-1.586;2023-09-19T05:56:32;22.40;67.50
53978;DHT22;39886;47.984;-1.586;2023-09-19T05:58:57;22.30;67.40
53978;DHT22;39886;47.984;-1.586;2023-09-19T06:01:23;22.30;67.40
53978;DHT22;39886;47.984;-1.586;2023-09-19T06:03:48;22.40;67.50
53978;DHT22;39886;47.984;-1.586;2023-09-19T06:06:14;22.30;67.40
53978;DHT22;39886;47.984;-1.586;2023-09-19T06:08:40;22.30;67.50
53978;DHT22;39886;47.984;-1.586;2023-09-19T06:11:05;22.40;67.50
53978;DHT22;39886;47.984;-1.586;2023-09-19T06:13:34;22.40;67.50
53978;DHT22;39886;47.984;-1.586;2023-09-19T06:16:01;22.40;67.50
53978;DHT22;39886;47.984;-1.586;2023-09-19T06:18:31;22.30;67.50
53978;DHT22;39886;47.984;-1.586;2023-09-19T06:20:59;22.30;67.50
53978;DHT22;39886;47.984;-1.586;2023-09-19T06:23:24;22.30;67.60
53978;DHT22;39886;47.984;-1.586;2023-09-19T06:25:52;22.30;67.50
53978;DHT22;39886;47.984;-1.586;2023-09-19T06:28:18;22.30;67.50
53978;DHT22;39886;47.984;-1.586;2023-09-19T06:30:49;22.40;67.50
53978;DHT22;39886;47.984;-1.586;2023-09-19T06:33:14;22.40;67.50
53978;DHT22;39886;47.984;-1.586;2023-09-19T06:35:41;22.40;67.40
53978;DHT22;39886;47.984;-1.586;2023-09-19T06:38:07;22.40;67.50
53978;DHT22;39886;47.984;-1.586;2023-09-19T06:40:35;22.40;67.40
53978;DHT22;39886;47.984;-1.586;2023-09-19T06:43:01;22.40;67.30
53978;DHT22;39886;47.984;-1.586;2023-09-19T06:45:30;22.40;67.10
53978;DHT22;39886;47.984;-1.586;2023-09-19T06:47:57;22.50;67.30
53978;DHT22;39886;47.984;-1.586;2023-09-19T06:50:23;22.50;67.20
53978;DHT22;39886;47.984;-1.586;2023-09-19T06:52:52;22.50;67.00
53978;DHT22;39886;47.984;-1.586;2023-09-19T06:55:19;22.50;67.00
53978;DHT22;39886;47.984;-1.586;2023-09-19T06:57:45;22.50;67.20
53978;DHT22;39886;47.984;-1.586;2023-09-19T07:00:11;22.50;67.10
53978;DHT22;39886;47.984;-1.586;2023-09-19T07:02:59;22.50;67.50
53978;DHT22;39886;47.984;-1.586;2023-09-19T07:05:32;22.60;67.30
53978;DHT22;39886;47.984;-1.586;2023-09-19T07:08:00;22.60;67.20
53978;DHT22;39886;47.984;-1.586;2023-09-19T07:10:26;22.60;67.20
53978;DHT22;39886;47.984;-1.586;2023-09-19T07:13:04;22.70;67.20
53978;DHT22;39886;47.984;-1.586;2023-09-19T07:15:35;22.70;67.10
53978;DHT22;39886;47.984;-1.586;2023-09-19T07:18:04;22.80;67.00
53978;DHT22;39886;47.984;-1.586;2023-09-19T07:20:30;22.80;67.00
53978;DHT22;39886;47.984;-1.586;2023-09-19T07:22:57;22.90;66.70
53978;DHT22;39886;47.984;-1.586;2023-09-19T07:25:26;22.90;66.70
53978;DHT22;39886;47.984;-1.586;2023-09-19T07:27:54;22.90;66.70
53978;DHT22;39886;47.984;-1.586;2023-09-19T07:30:20;23.00;66.70
53978;DHT22;39886;47.984;-1.586;2023-09-19T07:32:45;23.00;66.60
53978;DHT22;39886;47.984;-1.586;2023-09-19T07:35:11;23.00;66.70
53978;DHT22;39886;47.984;-1.586;2023-09-19T07:37:37;23.10;66.90
53978;DHT22;39886;47.984;-1.586;2023-09-19T07:40:03;23.10;66.70
53978;DHT22;39886;47.984;-1.586;2023-09-19T07:42:33;23.10;66.50
53978;DHT22;39886;47.984;-1.586;2023-09-19T07:45:01;23.20;66.30
53978;DHT22;39886;47.984;-1.586;2023-09-19T07:47:26;23.20;66.60
53978;DHT22;39886;47.984;-1.586;2023-09-19T07:49:52;23.30;66.20
53978;DHT22;39886;47.984;-1.586;2023-09-19T07:52:18;23.30;66.10
53978;DHT22;39886;47.984;-1.586;2023-09-19T07:54:44;23.30;65.80
53978;DHT22;39886;47.984;-1.586;2023-09-19T07:57:10;23.30;65.90
53978;DHT22;39886;47.984;-1.586;2023-09-19T07:59:37;23.40;67.10
53978;DHT22;39886;47.984;-1.586;2023-09-19T08:02:04;23.40;66.30
53978;DHT22;39886;47.984;-1.586;2023-09-19T08:04:30;23.50;66.20
53978;DHT22;39886;47.984;-1.586;2023-09-19T08:06:59;23.50;65.90
53978;DHT22;39886;47.984;-1.586;2023-09-19T08:09:26;23.60;66.20
53978;DHT22;39886;47.984;-1.586;2023-09-19T08:11:51;23.60;66.30
53978;DHT22;39886;47.984;-1.586;2023-09-19T08:14:17;23.60;66.10
53978;DHT22;39886;47.984;-1.586;2023-09-19T08:16:43;23.60;65.90
53978;DHT22;39886;47.984;-1.586;2023-09-19T08:19:09;23.60;65.90
53978;DHT22;39886;47.984;-1.586;2023-09-19T08:21:35;23.70;66.10
53978;DHT22;39886;47.984;-1.586;2023-09-19T08:24:01;23.70;65.70
53978;DHT22;39886;47.984;-1.586;2023-09-19T08:26:29;23.70;65.60
53978;DHT22;39886;47.984;-1.586;2023-09-19T08:28:56;23.70;65.50
53978;DHT22;39886;47.984;-1.586;2023-09-19T08:31:22;23.80;66.00
53978;DHT22;39886;47.984;-1.586;2023-09-19T08:33:49;23.70;65.70
53978;DHT22;39886;47.984;-1.586;2023-09-19T08:36:16;23.80;65.80
53978;DHT22;39886;47.984;-1.586;2023-09-19T08:38:42;23.80;65.80
53978;DHT22;39886;47.984;-1.586;2023-09-19T08:41:07;23.80;65.50
53978;DHT22;39886;47.984;-1.586;2023-09-19T08:43:34;23.80;66.00
53978;DHT22;39886;47.984;-1.586;2023-09-19T08:46:08;23.80;65.50
53978;DHT22;39886;47.984;-1.586;2023-09-19T08:48:35;23.80;65.50
53978;DHT22;39886;47.984;-1.586;2023-09-19T08:51:07;23.90;65.60
53978;DHT22;39886;47.984;-1.586;2023-09-19T08:53:40;23.90;66.00
53978;DHT22;39886;47.984;-1.586;2023-09-19T08:56:08;23.90;65.70
53978;DHT22;39886;47.984;-1.586;2023-09-19T08:58:39;23.90;65.80
53978;DHT22;39886;47.984;-1.586;2023-09-19T09:01:08;23.90;65.10
53978;DHT22;39886;47.984;-1.586;2023-09-19T09:03:37;23.90;65.70
53978;DHT22;39886;47.984;-1.586;2023-09-19T09:06:06;23.90;65.70
53978;DHT22;39886;47.984;-1.586;2023-09-19T09:08:32;24.00;65.40
53978;DHT22;39886;47.984;-1.586;2023-09-19T09:10:58;24.00;65.60
53978;DHT22;39886;47.984;-1.586;2023-09-19T09:13:24;24.00;65.50
53978;DHT22;39886;47.984;-1.586;2023-09-19T09:15:51;24.00;65.40
53978;DHT22;39886;47.984;-1.586;2023-09-19T09:18:19;24.10;65.70
53978;DHT22;39886;47.984;-1.586;2023-09-19T09:20:45;24.10;65.60
53978;DHT22;39886;47.984;-1.586;2023-09-19T09:23:12;24.10;65.50
53978;DHT22;39886;47.984;-1.586;2023-09-19T09:25:54;24.10;65.60
53978;DHT22;39886;47.984;-1.586;2023-09-19T09:28:25;24.10;65.50
53978;DHT22;39886;47.984;-1.586;2023-09-19T09:30:52;24.10;65.30
53978;DHT22;39886;47.984;-1.586;2023-09-19T09:33:18;24.10;65.20
53978;DHT22;39886;47.984;-1.586;2023-09-19T09:35:47;24.10;65.30
53978;DHT22;39886;47.984;-1.586;2023-09-19T09:38:13;24.10;65.20
53978;DHT22;39886;47.984;-1.586;2023-09-19T09:40:48;24.10;65.00
53978;DHT22;39886;47.984;-1.586;2023-09-19T09:43:24;24.20;65.10
53978;DHT22;39886;47.984;-1.586;2023-09-19T09:45:59;24.20;65.00
53978;DHT22;39886;47.984;-1.586;2023-09-19T09:48:35;24.20;65.00
53978;DHT22;39886;47.984;-1.586;2023-09-19T09:51:04;24.20;64.80
53978;DHT22;39886;47.984;-1.586;2023-09-19T09:53:33;24.20;65.00
53978;DHT22;39886;47.984;-1.586;2023-09-19T09:58:34;24.30;64.70
53978;DHT22;39886;47.984;-1.586;2023-09-19T10:01:00;24.30;64.40
53978;DHT22;39886;47.984;-1.586;2023-09-19T10:03:39;24.30;64.60
53978;DHT22;39886;47.984;-1.586;2023-09-19T10:06:07;24.30;64.40
53978;DHT22;39886;47.984;-1.586;2023-09-19T10:11:47;24.30;64.40
53978;DHT22;39886;47.984;-1.586;2023-09-19T10:14:16;24.30;64.40
53978;DHT22;39886;47.984;-1.586;2023-09-19T10:16:45;24.30;64.50
53978;DHT22;39886;47.984;-1.586;2023-09-19T10:19:15;24.30;64.40
53978;DHT22;39886;47.984;-1.586;2023-09-19T10:21:41;24.30;64.20
53978;DHT22;39886;47.984;-1.586;2023-09-19T10:24:08;24.30;63.80
53978;DHT22;39886;47.984;-1.586;2023-09-19T10:26:34;24.30;63.90
53978;DHT22;39886;47.984;-1.586;2023-09-19T10:29:01;24.30;63.70
53978;DHT22;39886;47.984;-1.586;2023-09-19T10:31:29;24.40;63.60
53978;DHT22;39886;47.984;-1.586;2023-09-19T10:33:55;24.40;63.50
53978;DHT22;39886;47.984;-1.586;2023-09-19T10:36:22;24.40;63.50
53978;DHT22;39886;47.984;-1.586;2023-09-19T10:38:51;24.40;63.20
53978;DHT22;39886;47.984;-1.586;2023-09-19T10:41:20;24.50;63.00
53978;DHT22;39886;47.984;-1.586;2023-09-19T10:43:47;24.40;63.40
53978;DHT22;39886;47.984;-1.586;2023-09-19T10:46:13;24.50;63.10
53978;DHT22;39886;47.984;-1.586;2023-09-19T10:48:39;24.50;63.40
53978;DHT22;39886;47.984;-1.586;2023-09-19T10:51:18;24.40;63.10
53978;DHT22;39886;47.984;-1.586;2023-09-19T10:57:16;24.50;62.60
53978;DHT22;39886;47.984;-1.586;2023-09-19T10:59:12;24.40;63.60
53978;DHT22;39886;47.984;-1.586;2023-09-19T11:04:23;24.40;62.70
53978;DHT22;39886;47.984;-1.586;2023-09-19T11:06:59;24.50;62.70
53978;DHT22;39886;47.984;-1.586;2023-09-19T11:09:24;24.40;62.50
53978;DHT22;39886;47.984;-1.586;2023-09-19T11:11:51;24.40;62.70
53978;DHT22;39886;47.984;-1.586;2023-09-19T11:22:14;24.50;62.50
53978;DHT22;39886;47.984;-1.586;2023-09-19T11:24:40;24.50;62.30
53978;DHT22;39886;47.984;-1.586;2023-09-19T11:27:11;24.50;62.10
53978;DHT22;39886;47.984;-1.586;2023-09-19T11:29:39;24.50;61.90
53978;DHT22;39886;47.984;-1.586;2023-09-19T11:32:06;24.40;62.00
53978;DHT22;39886;47.984;-1.586;2023-09-19T11:34:44;24.40;61.50
53978;DHT22;39886;47.984;-1.586;2023-09-19T11:39:39;24.40;61.20
53978;DHT22;39886;47.984;-1.586;2023-09-19T11:44:52;24.40;61.00
53978;DHT22;39886;47.984;-1.586;2023-09-19T11:47:21;24.40;60.40
53978;DHT22;39886;47.984;-1.586;2023-09-19T11:49:47;24.50;60.60
53978;DHT22;39886;47.984;-1.586;2023-09-19T11:52:16;24.50;60.30
53978;DHT22;39886;47.984;-1.586;2023-09-19T11:54:47;24.50;60.00
53978;DHT22;39886;47.984;-1.586;2023-09-19T11:57:20;24.50;59.90
53978;DHT22;39886;47.984;-1.586;2023-09-19T11:59:46;24.60;60.00
53978;DHT22;39886;47.984;-1.586;2023-09-19T12:02:14;24.60;59.80
53978;DHT22;39886;47.984;-1.586;2023-09-19T12:04:46;24.70;60.00
53978;DHT22;39886;47.984;-1.586;2023-09-19T12:07:14;24.70;59.80
53978;DHT22;39886;47.984;-1.586;2023-09-19T12:09:45;24.70;59.50
53978;DHT22;39886;47.984;-1.586;2023-09-19T12:12:25;24.70;59.50
53978;DHT22;39886;47.984;-1.586;2023-09-19T12:14:54;24.70;59.40
53978;DHT22;39886;47.984;-1.586;2023-09-19T12:17:20;24.70;59.60
53978;DHT22;39886;47.984;-1.586;2023-09-19T12:19:56;24.80;59.50
53978;DHT22;39886;47.984;-1.586;2023-09-19T12:22:21;24.80;60.30
53978;DHT22;39886;47.984;-1.586;2023-09-19T12:24:47;24.80;59.50
53978;DHT22;39886;47.984;-1.586;2023-09-19T12:27:14;24.80;59.40
53978;DHT22;39886;47.984;-1.586;2023-09-19T12:29:46;24.80;59.20
53978;DHT22;39886;47.984;-1.586;2023-09-19T12:32:16;24.70;59.20
53978;DHT22;39886;47.984;-1.586;2023-09-19T12:34:42;24.80;59.20
53978;DHT22;39886;47.984;-1.586;2023-09-19T12:37:08;24.80;59.00
53978;DHT22;39886;47.984;-1.586;2023-09-19T12:39:42;24.80;58.90
53978;DHT22;39886;47.984;-1.586;2023-09-19T12:42:09;24.80;59.30
53978;DHT22;39886;47.984;-1.586;2023-09-19T12:44:38;24.80;59.20
53978;DHT22;39886;47.984;-1.586;2023-09-19T12:47:08;24.80;59.40
53978;DHT22;39886;47.984;-1.586;2023-09-19T12:49:34;24.80;59.60
53978;DHT22;39886;47.984;-1.586;2023-09-19T12:52:00;24.80;59.50
53978;DHT22;39886;47.984;-1.586;2023-09-19T12:54:37;24.90;59.50
53978;DHT22;39886;47.984;-1.586;2023-09-19T12:57:04;24.90;59.40
53978;DHT22;39886;47.984;-1.586;2023-09-19T12:59:30;24.90;59.40
53978;DHT22;39886;47.984;-1.586;2023-09-19T13:02:04;24.90;59.50
53978;DHT22;39886;47.984;-1.586;2023-09-19T13:04:32;24.90;59.90
53978;DHT22;39886;47.984;-1.586;2023-09-19T13:07:00;24.90;59.10
53978;DHT22;39886;47.984;-1.586;2023-09-19T13:09:26;24.90;59.70
53978;DHT22;39886;47.984;-1.586;2023-09-19T13:11:59;24.90;59.10
53978;DHT22;39886;47.984;-1.586;2023-09-19T13:14:27;24.90;59.30
53978;DHT22;39886;47.984;-1.586;2023-09-19T13:19:45;24.90;59.10
53978;DHT22;39886;47.984;-1.586;2023-09-19T13:24:58;24.90;59.30
53978;DHT22;39886;47.984;-1.586;2023-09-19T13:27:24;24.90;59.70
53978;DHT22;39886;47.984;-1.586;2023-09-19T13:29:49;25.00;59.50
53978;DHT22;39886;47.984;-1.586;2023-09-19T13:32:15;25.00;59.40
53978;DHT22;39886;47.984;-1.586;2023-09-19T13:34:41;25.00;58.90
53978;DHT22;39886;47.984;-1.586;2023-09-19T13:39:32;25.00;58.30
53978;DHT22;39886;47.984;-1.586;2023-09-19T13:41:58;25.00;58.90
53978;DHT22;39886;47.984;-1.586;2023-09-19T13:44:24;25.00;58.80
53978;DHT22;39886;47.984;-1.586;2023-09-19T13:46:49;25.00;58.60
53978;DHT22;39886;47.984;-1.586;2023-09-19T13:49:16;25.00;58.50
53978;DHT22;39886;47.984;-1.586;2023-09-19T13:51:43;25.10;58.70
53978;DHT22;39886;47.984;-1.586;2023-09-19T13:54:09;25.10;58.50
53978;DHT22;39886;47.984;-1.586;2023-09-19T13:56:35;25.10;58.00
53978;DHT22;39886;47.984;-1.586;2023-09-19T13:59:02;25.10;58.20
53978;DHT22;39886;47.984;-1.586;2023-09-19T14:01:27;25.10;57.90
53978;DHT22;39886;47.984;-1.586;2023-09-19T14:03:53;25.10;57.90
53978;DHT22;39886;47.984;-1.586;2023-09-19T14:06:20;25.10;58.30
53978;DHT22;39886;47.984;-1.586;2023-09-19T14:08:45;25.10;58.10
53978;DHT22;39886;47.984;-1.586;2023-09-19T14:11:13;25.20;58.20
53978;DHT22;39886;47.984;-1.586;2023-09-19T14:13:39;25.10;58.10
53978;DHT22;39886;47.984;-1.586;2023-09-19T14:16:08;25.10;58.10
53978;DHT22;39886;47.984;-1.586;2023-09-19T14:18:36;25.20;58.00
53978;DHT22;39886;47.984;-1.586;2023-09-19T14:21:03;25.10;58.10
53978;DHT22;39886;47.984;-1.586;2023-09-19T14:23:33;25.10;58.60
53978;DHT22;39886;47.984;-1.586;2023-09-19T14:26:00;25.20;58.40
53978;DHT22;39886;47.984;-1.586;2023-09-19T14:28:26;25.20;58.90
53978;DHT22;39886;47.984;-1.586;2023-09-19T14:30:52;25.20;58.40
53978;DHT22;39886;47.984;-1.586;2023-09-19T14:33:18;25.20;58.30
53978;DHT22;39886;47.984;-1.586;2023-09-19T14:35:43;25.20;58.40
53978;DHT22;39886;47.984;-1.586;2023-09-19T14:38:09;25.20;58.40
53978;DHT22;39886;47.984;-1.586;2023-09-19T14:40:34;25.20;58.60
53978;DHT22;39886;47.984;-1.586;2023-09-19T14:43:01;25.30;58.50
53978;DHT22;39886;47.984;-1.586;2023-09-19T14:45:27;25.30;58.70
53978;DHT22;39886;47.984;-1.586;2023-09-19T14:47:53;25.30;58.70
53978;DHT22;39886;47.984;-1.586;2023-09-19T14:50:21;25.30;58.70
53978;DHT22;39886;47.984;-1.586;2023-09-19T14:52:47;25.20;58.60
53978;DHT22;39886;47.984;-1.586;2023-09-19T14:55:14;25.20;58.60
53978;DHT22;39886;47.984;-1.586;2023-09-19T14:57:41;25.20;58.50
53978;DHT22;39886;47.984;-1.586;2023-09-19T15:00:07;25.20;58.60
53978;DHT22;39886;47.984;-1.586;2023-09-19T15:02:38;25.20;58.40
53978;DHT22;39886;47.984;-1.586;2023-09-19T15:05:04;25.10;58.40
53978;DHT22;39886;47.984;-1.586;2023-09-19T15:07:32;25.10;58.30
53978;DHT22;39886;47.984;-1.586;2023-09-19T15:09:57;25.10;58.40
53978;DHT22;39886;47.984;-1.586;2023-09-19T15:12:23;25.10;58.10
53978;DHT22;39886;47.984;-1.586;2023-09-19T15:14:48;25.10;58.20
53978;DHT22;39886;47.984;-1.586;2023-09-19T15:17:14;25.10;58.00
53978;DHT22;39886;47.984;-1.586;2023-09-19T15:19:40;25.10;58.00
53978;DHT22;39886;47.984;-1.586;2023-09-19T15:22:06;25.00;57.90
53978;DHT22;39886;47.984;-1.586;2023-09-19T15:24:31;25.00;57.90
53978;DHT22;39886;47.984;-1.586;2023-09-19T15:26:57;25.10;57.80
53978;DHT22;39886;47.984;-1.586;2023-09-19T15:29:23;25.00;57.80
53978;DHT22;39886;47.984;-1.586;2023-09-19T15:31:48;25.00;57.80
53978;DHT22;39886;47.984;-1.586;2023-09-19T15:34:14;25.10;58.00
53978;DHT22;39886;47.984;-1.586;2023-09-19T15:36:41;25.10;57.80
53978;DHT22;39886;47.984;-1.586;2023-09-19T15:39:07;25.00;57.80
53978;DHT22;39886;47.984;-1.586;2023-09-19T15:41:36;25.00;57.80
53978;DHT22;39886;47.984;-1.586;2023-09-19T15:44:11;25.00;57.90
53978;DHT22;39886;47.984;-1.586;2023-09-19T15:46:37;25.00;58.10
53978;DHT22;39886;47.984;-1.586;2023-09-19T15:49:02;25.00;58.20
53978;DHT22;39886;47.984;-1.586;2023-09-19T15:51:28;25.00;58.30
53978;DHT22;39886;47.984;-1.586;2023-09-19T15:53:54;24.90;58.30
53978;DHT22;39886;47.984;-1.586;2023-09-19T15:56:22;24.90;58.40
53978;DHT22;39886;47.984;-1.586;2023-09-19T15:58:48;24.90;58.50
53978;DHT22;39886;47.984;-1.586;2023-09-19T16:01:14;24.90;58.40
53978;DHT22;39886;47.984;-1.586;2023-09-19T16:03:42;24.80;58.30